createdAt,value
2023-03-03T00:01:20.239Z,100000.78
2023-03-03T00:03:48.398Z,99958.47
2023-03-03T00:06:16.578Z,99978.66
2023-03-03T00:08:44.913Z,99967.38
2023-03-03T00:11:13.916Z,99979.03
2023-03-03T00:13:48.677Z,99978.44
2023-03-03T00:16:26.787Z,99935.06
2023-03-03T00:18:55.889Z,99967.69
2023-03-03T00:21:30.329Z,99939.25
2023-03-03T00:24:25.894Z,99954.09
2023-03-03T00:26:56.066Z,99938.25
2023-03-03T00:29:35.812Z,99946.03
2023-03-03T00:32:25.277Z,99938.53
2023-03-03T00:34:54.616Z,99928.75
2023-03-03T00:37:31.939Z,99932.84
2023-03-03T00:40:22.200Z,99933.78
2023-03-03T00:42:53.316Z,99911.84
2023-03-03T00:45:33.064Z,99905.88
2023-03-03T00:48:17.823Z,99913.19
2023-03-03T00:50:45.938Z,99922.00
2023-03-03T00:53:17.252Z,99921.38
2023-03-03T00:55:46.029Z,99917.88
2023-03-03T00:58:13.974Z,99915.53
2023-03-03T01:00:42.535Z,99913.31
2023-03-03T01:03:17.183Z,99911.59
2023-03-03T01:05:45.383Z,99912.09
2023-03-03T01:08:13.779Z,99900.09
2023-03-03T01:10:44.879Z,99908.56
2023-03-03T01:13:13.466Z,99905.66
2023-03-03T01:15:41.931Z,99909.44
2023-03-03T01:18:12.958Z,99909.94
2023-03-03T01:20:41.352Z,99901.34
2023-03-03T01:23:09.497Z,99908.16
2023-03-03T01:25:38.055Z,99908.38
2023-03-03T01:28:06.237Z,99913.88
2023-03-03T01:30:34.334Z,99899.78
2023-03-03T01:33:02.239Z,99909.44
2023-03-03T01:35:31.689Z,99908.75
2023-03-03T01:38:00.299Z,99913.88
2023-03-03T01:40:31.235Z,99908.84
2023-03-03T01:43:00.916Z,99916.41
2023-03-03T01:45:30.664Z,99912.84
2023-03-03T01:48:02.703Z,99912.13
2023-03-03T01:50:39.160Z,99899.22
2023-03-03T01:53:15.144Z,99886.84
2023-03-03T01:55:44.758Z,99892.66
2023-03-03T01:58:17.196Z,99901.56
2023-03-03T02:00:51.983Z,99895.06
2023-03-03T02:03:23.818Z,99891.31
2023-03-03T02:05:57.519Z,99853.13
2023-03-03T02:08:32.661Z,99897.25
2023-03-03T02:11:00.949Z,99896.66
2023-03-03T02:13:28.840Z,99893.69
2023-03-03T02:15:59.214Z,99891.41
2023-03-03T02:18:27.715Z,99891.56
2023-03-03T02:21:04.203Z,99890.91
2023-03-03T02:23:39.729Z,99893.88
2023-03-03T02:26:11.541Z,99894.06
2023-03-03T02:28:41.093Z,99894.22
2023-03-03T02:31:13.410Z,99902.22
2023-03-03T02:33:42.038Z,99889.56
2023-03-03T02:36:13.979Z,99892.25
2023-03-03T02:38:49.109Z,99892.88
2023-03-03T02:41:30.269Z,99889.38
2023-03-03T02:44:02.369Z,99888.81
2023-03-03T02:46:34.772Z,99874.44
2023-03-03T02:49:03.506Z,99893.47
2023-03-03T02:51:31.525Z,99901.09
2023-03-03T02:53:59.584Z,99899.41
2023-03-03T02:56:29.552Z,99862.84
2023-03-03T02:58:57.575Z,99888.16
2023-03-03T03:01:25.676Z,99900.47
2023-03-03T03:03:53.708Z,99890.59
2023-03-03T03:06:21.704Z,99879.06
2023-03-03T03:08:49.738Z,99890.72
2023-03-03T03:11:17.662Z,99901.19
2023-03-03T03:13:46.938Z,99887.97
2023-03-03T03:16:15.068Z,99886.56
2023-03-03T03:18:43.116Z,99886.47
2023-03-03T03:21:13.188Z,99885.25
2023-03-03T03:23:41.684Z,99887.22
2023-03-03T03:26:10.629Z,99887.22
2023-03-03T03:28:38.910Z,99880.38
2023-03-03T03:31:09.805Z,99879.53
2023-03-03T03:33:38.040Z,99871.50
2023-03-03T03:36:07.212Z,99880.50
2023-03-03T03:38:36.771Z,99877.44
2023-03-03T03:41:05.745Z,99872.88
2023-03-03T03:43:33.876Z,99873.41
2023-03-03T03:46:02.147Z,99812.53
2023-03-03T03:48:31.613Z,99869.91
2023-03-03T03:50:59.569Z,99874.28
2023-03-03T03:53:27.739Z,99865.59
2023-03-03T03:55:55.810Z,99867.34
2023-03-03T03:58:23.853Z,99875.94
2023-03-03T04:00:51.969Z,99867.81
2023-03-03T04:03:20.242Z,99862.84
2023-03-03T04:05:51.135Z,99872.88
2023-03-03T04:08:19.106Z,99875.09
2023-03-03T04:10:47.086Z,99883.66
2023-03-03T04:13:15.019Z,99870.56
2023-03-03T04:15:43.359Z,99869.47
2023-03-03T04:18:11.360Z,99875.47
2023-03-03T04:20:41.081Z,99876.72
2023-03-03T04:23:10.821Z,99870.78
2023-03-03T04:25:38.833Z,99859.72
2023-03-03T04:28:06.758Z,99869.09
2023-03-03T04:30:34.718Z,99867.59
2023-03-03T04:33:02.700Z,99864.22
2023-03-03T04:35:30.719Z,99852.28
2023-03-03T04:37:58.847Z,99874.97
2023-03-03T04:40:28.505Z,99876.97
2023-03-03T04:42:56.422Z,99858.06
2023-03-03T04:45:24.388Z,99869.94
2023-03-03T04:47:52.350Z,99869.69
2023-03-03T04:50:20.907Z,99874.13
2023-03-03T04:52:48.908Z,99874.28
2023-03-03T04:55:17.025Z,99874.28
2023-03-03T04:57:46.369Z,99872.22
2023-03-03T05:00:17.469Z,99869.19
2023-03-03T05:02:45.511Z,99868.28
2023-03-03T05:05:13.798Z,99866.81
2023-03-03T05:07:41.916Z,99883.13
2023-03-03T05:10:11.049Z,99869.78
2023-03-03T05:12:39.214Z,99877.16
2023-03-03T05:15:09.681Z,99874.56
2023-03-03T05:17:37.755Z,99876.19
2023-03-03T05:20:08.592Z,99862.09
2023-03-03T05:22:36.663Z,99884.31
2023-03-03T05:25:04.928Z,99876.34
2023-03-03T05:27:32.874Z,99876.50
2023-03-03T05:30:00.763Z,99885.19
2023-03-03T05:32:30.155Z,99878.53
2023-03-03T05:34:58.160Z,99882.22
2023-03-03T05:37:26.325Z,99881.44
2023-03-03T05:39:54.300Z,99878.75
2023-03-03T05:42:22.292Z,99884.66
2023-03-03T05:44:50.295Z,99881.75
2023-03-03T05:47:18.271Z,99886.13
2023-03-03T05:49:47.659Z,99878.03
2023-03-03T05:52:15.636Z,99890.69
2023-03-03T05:54:43.623Z,99884.44
2023-03-03T05:57:11.937Z,99875.47
2023-03-03T05:59:40.063Z,99875.03
2023-03-03T06:02:08.461Z,99870.03
2023-03-03T06:04:36.493Z,99879.88
2023-03-03T06:07:05.889Z,99867.91
2023-03-03T06:09:33.907Z,99844.97
2023-03-03T06:12:02.065Z,99879.88
2023-03-03T06:14:30.263Z,99889.22
2023-03-03T06:16:58.439Z,99885.72
2023-03-03T06:19:26.909Z,99891.41
2023-03-03T06:21:55.083Z,99875.84
2023-03-03T06:24:25.389Z,99890.19
2023-03-03T06:26:53.485Z,99896.97
2023-03-03T06:29:21.441Z,99898.81
2023-03-03T06:31:49.543Z,99897.13
2023-03-03T06:34:17.592Z,99900.31
2023-03-03T06:36:45.809Z,99896.63
2023-03-03T06:39:13.817Z,99887.94
2023-03-03T06:41:43.086Z,99895.94
2023-03-03T06:44:11.920Z,99898.13
2023-03-03T06:46:39.984Z,99899.56
2023-03-03T06:49:07.970Z,99898.53
2023-03-03T06:51:39.789Z,99903.47
2023-03-03T06:54:13.812Z,99895.81
2023-03-03T06:56:44.528Z,99898.81
2023-03-03T06:59:15.101Z,99893.63
2023-03-03T07:01:43.948Z,99895.19
2023-03-03T07:04:28.918Z,99898.72
2023-03-03T07:06:58.604Z,99899.47
2023-03-03T07:09:28.373Z,99892.88
2023-03-03T07:12:01.827Z,99891.69
2023-03-03T07:14:30.638Z,99894.97
2023-03-03T07:17:02.135Z,99894.97
2023-03-03T07:19:34.596Z,99893.84
2023-03-03T07:22:15.413Z,99892.22
2023-03-03T07:24:45.749Z,99898.13
2023-03-03T07:27:21.531Z,99897.59
2023-03-03T07:29:51.534Z,99888.06
2023-03-03T07:32:28.316Z,99891.41
2023-03-03T07:34:57.694Z,99888.88
2023-03-03T07:37:33.008Z,99891.09
2023-03-03T07:40:01.893Z,99891.25
2023-03-03T07:42:40.274Z,99891.38
2023-03-03T07:45:24.515Z,99890.22
2023-03-03T07:47:52.349Z,99872.56
2023-03-03T07:50:24.053Z,99883.16
2023-03-03T07:52:57.070Z,99883.47
2023-03-03T07:55:32.492Z,99868.31
2023-03-03T07:58:19.028Z,99864.84
2023-03-03T08:01:25.381Z,99883.72
2023-03-03T08:03:53.661Z,99878.53
2023-03-03T08:06:36.892Z,99879.94
2023-03-03T08:09:28.497Z,99877.34
2023-03-03T08:12:00.891Z,99854.22
2023-03-03T08:14:35.068Z,99870.66
2023-03-03T08:17:04.035Z,99866.91
2023-03-03T08:19:32.841Z,99868.72
2023-03-03T08:22:08.293Z,99865.78
2023-03-03T08:24:38.439Z,99860.50
2023-03-03T08:27:06.605Z,99857.53
2023-03-03T08:29:36.022Z,99859.47
2023-03-03T08:32:04.200Z,99852.91
2023-03-03T08:34:32.179Z,99856.25
2023-03-03T08:37:00.255Z,99851.97
2023-03-03T08:39:28.255Z,99820.09
2023-03-03T08:41:56.254Z,99844.38
2023-03-03T08:44:24.283Z,99842.50
2023-03-03T08:46:53.735Z,99839.09
2023-03-03T08:49:22.648Z,99832.78
2023-03-03T08:51:51.684Z,99841.41
2023-03-03T08:54:19.688Z,99834.16
2023-03-03T08:56:47.613Z,99839.81
2023-03-03T08:59:15.578Z,99841.25
2023-03-03T09:01:44.916Z,99845.69
2023-03-03T09:04:14.239Z,99835.38
2023-03-03T09:06:42.463Z,99844.38
2023-03-03T09:09:10.402Z,99824.06
2023-03-03T09:11:38.400Z,99843.47
2023-03-03T09:14:11.483Z,99837.06
2023-03-03T09:16:42.050Z,99841.34
2023-03-03T09:19:27.656Z,99836.81
2023-03-03T09:21:57.198Z,99835.69
2023-03-03T09:24:27.636Z,99837.13
2023-03-03T09:26:56.161Z,99834.59
2023-03-03T09:29:29.369Z,99832.72
2023-03-03T09:31:59.229Z,99833.19
2023-03-03T09:34:39.197Z,99820.28
2023-03-03T09:37:19.913Z,99823.03
2023-03-03T09:39:50.814Z,99820.84
2023-03-03T09:42:47.522Z,99824.84
2023-03-03T09:45:48.453Z,99821.38
2023-03-03T09:48:45.122Z,99818.94
2023-03-03T09:51:38.058Z,99817.56
2023-03-03T09:54:18.962Z,99823.50
2023-03-03T09:56:54.665Z,99817.31
2023-03-03T09:59:38.274Z,99808.84
2023-03-03T10:02:26.069Z,99815.00
2023-03-03T10:05:15.727Z,99809.44
2023-03-03T10:07:54.222Z,99813.31
2023-03-03T10:10:46.945Z,99819.38
2023-03-03T10:13:27.611Z,99818.13
2023-03-03T10:16:12.392Z,99815.53
2023-03-03T10:18:49.673Z,99793.38
2023-03-03T10:21:22.394Z,99809.88
2023-03-03T10:23:59.327Z,99801.63
2023-03-03T10:26:57.951Z,99795.97
2023-03-03T10:29:45.117Z,99806.34
2023-03-03T10:32:38.335Z,99799.81
2023-03-03T10:35:26.066Z,99799.28
2023-03-03T10:38:10.852Z,99800.41
2023-03-03T10:40:47.030Z,99789.81
2023-03-03T10:43:32.629Z,99790.91
2023-03-03T10:46:17.957Z,99785.84
2023-03-03T10:49:02.333Z,99781.25
2023-03-03T10:51:40.136Z,99769.38
2023-03-03T10:54:30.566Z,99780.81
2023-03-03T10:57:08.717Z,99775.69
2023-03-03T10:59:52.783Z,99768.53
2023-03-03T11:02:27.515Z,99740.53
2023-03-03T11:05:16.397Z,99763.56
2023-03-03T11:07:48.952Z,99755.19
2023-03-03T11:10:28.584Z,99725.31
2023-03-03T11:13:11.286Z,99756.41
2023-03-03T11:15:56.175Z,99739.16
2023-03-03T11:18:36.518Z,99751.84
2023-03-03T11:21:14.377Z,99734.84
2023-03-03T11:24:05.385Z,99744.78
2023-03-03T11:26:46.785Z,99725.47
2023-03-03T11:29:47.875Z,99741.38
2023-03-03T11:32:25.385Z,99748.09
2023-03-03T11:35:05.125Z,99737.63
2023-03-03T11:37:40.630Z,99734.81
2023-03-03T11:40:16.851Z,99712.03
2023-03-03T11:42:54.720Z,99738.06
2023-03-03T11:45:30.728Z,99724.22
2023-03-03T11:48:07.429Z,99723.63
2023-03-03T11:50:43.145Z,99720.97
2023-03-03T11:53:26.497Z,99695.41
2023-03-03T11:56:01.261Z,99705.47
2023-03-03T11:58:33.997Z,99719.31
2023-03-03T12:01:23.937Z,99705.06
2023-03-03T12:03:59.038Z,99710.28
2023-03-03T12:06:37.135Z,99705.66
2023-03-03T12:09:16.908Z,99695.97
2023-03-03T12:11:51.655Z,99698.13
2023-03-03T12:14:35.550Z,99699.75
2023-03-03T12:17:13.144Z,99699.41
2023-03-03T12:19:50.195Z,99686.59
2023-03-03T12:22:36.790Z,99689.00
2023-03-03T12:25:23.949Z,99696.06
2023-03-03T12:28:01.996Z,99689.19
2023-03-03T12:31:02.814Z,99672.03
2023-03-03T12:33:41.625Z,99682.44
2023-03-03T12:36:23.836Z,99676.63
2023-03-03T12:38:57.656Z,99687.66
2023-03-03T12:41:33.689Z,99688.19
2023-03-03T12:44:07.813Z,99692.13
2023-03-03T12:46:46.419Z,99689.94
2023-03-03T12:49:15.894Z,99692.34
2023-03-03T12:51:56.813Z,99695.38
2023-03-03T12:54:46.670Z,99691.59
2023-03-03T12:57:26.586Z,99694.75
2023-03-03T13:00:13.188Z,99681.53
2023-03-03T13:02:47.760Z,99678.59
2023-03-03T13:05:23.260Z,99688.06
2023-03-03T13:08:02.820Z,99618.72
2023-03-03T13:10:40.061Z,99683.81
2023-03-03T13:13:16.641Z,99682.75
2023-03-03T13:15:55.655Z,99686.63
2023-03-03T13:18:37.097Z,99678.38
2023-03-03T13:21:13.198Z,99680.25
2023-03-03T13:23:50.383Z,99672.13
2023-03-03T13:26:23.829Z,99684.84
2023-03-03T13:29:04.683Z,99680.78
2023-03-03T13:31:36.242Z,99681.09
2023-03-03T13:34:04.619Z,99676.31
2023-03-03T13:36:37.887Z,99671.72
2023-03-03T13:39:16.565Z,99681.72
2023-03-03T13:41:50.709Z,99666.50
2023-03-03T13:44:23.810Z,99658.38
2023-03-03T13:47:04.076Z,99659.63
2023-03-03T13:49:49.068Z,99663.09
2023-03-03T13:52:22.776Z,99656.72
2023-03-03T13:55:14.099Z,99664.03
2023-03-03T13:58:07.000Z,99669.75
2023-03-03T14:00:43.979Z,99624.03
2023-03-03T14:03:50.780Z,99663.25
2023-03-03T14:06:22.860Z,99658.97
2023-03-03T14:09:15.394Z,99648.38
2023-03-03T14:11:48.841Z,99639.00
2023-03-03T14:14:34.675Z,99640.03
2023-03-03T14:17:08.382Z,99655.06
2023-03-03T14:19:40.119Z,99662.66
2023-03-03T14:22:23.741Z,99655.97
2023-03-03T14:25:03.057Z,99657.75
2023-03-03T14:27:39.241Z,99658.78
2023-03-03T14:30:30.755Z,99651.91
2023-03-03T14:33:06.895Z,99658.59
2023-03-03T14:35:37.358Z,99655.22
2023-03-03T14:38:13.376Z,99641.91
2023-03-03T14:40:45.567Z,99646.59
2023-03-03T14:43:25.745Z,99642.75
2023-03-03T14:45:55.323Z,99636.91
2023-03-03T14:48:25.153Z,99640.38
2023-03-03T14:50:54.981Z,99640.47
2023-03-03T14:53:33.091Z,99641.53
2023-03-03T14:58:56.123Z,99630.81
2023-03-03T15:01:31.672Z,99634.94
2023-03-03T15:04:01.649Z,99632.75
2023-03-03T15:06:35.127Z,99629.84
2023-03-03T15:09:25.582Z,99605.69
2023-03-03T15:11:54.383Z,99615.69
2023-03-03T15:14:30.338Z,99626.72
2023-03-03T15:17:00.019Z,99639.44
2023-03-03T15:19:44.010Z,99635.69
2023-03-03T15:22:20.358Z,99641.31
2023-03-03T15:25:00.072Z,99636.69
2023-03-03T15:27:36.546Z,99640.88
2023-03-03T15:30:21.961Z,99622.88
2023-03-03T15:32:59.010Z,99654.41
2023-03-03T15:35:38.058Z,99644.31
2023-03-03T15:38:18.458Z,99647.63
2023-03-03T15:40:49.813Z,99655.78
2023-03-03T15:43:27.366Z,99629.22
2023-03-03T15:46:05.859Z,99656.28
2023-03-03T15:48:47.706Z,99665.25
2023-03-03T15:51:26.074Z,99657.56
2023-03-03T15:54:14.413Z,99643.47
2023-03-03T15:56:48.033Z,99660.97
2023-03-03T15:59:34.410Z,99659.84
2023-03-03T16:02:17.047Z,99632.75
2023-03-03T16:04:54.172Z,99662.78
2023-03-03T16:07:32.067Z,99667.75
2023-03-03T16:10:12.119Z,99677.56
2023-03-03T16:12:51.816Z,99682.72
2023-03-03T16:15:32.939Z,99692.00
2023-03-03T16:18:11.825Z,99691.19
2023-03-03T16:20:46.584Z,99685.13
2023-03-03T16:23:38.256Z,99703.38
2023-03-03T16:26:14.974Z,99697.34
2023-03-03T16:28:54.169Z,99703.13
2023-03-03T16:31:26.296Z,99686.56
2023-03-03T16:34:02.316Z,99694.81
2023-03-03T16:36:39.568Z,99694.00
2023-03-03T16:39:15.132Z,99698.56
2023-03-03T16:41:52.539Z,99688.88
2023-03-03T16:44:35.817Z,99697.22
2023-03-03T16:47:19.669Z,99699.72
2023-03-03T16:49:58.142Z,99705.78
2023-03-03T16:52:34.942Z,99701.28
2023-03-03T16:55:09.764Z,99711.38
2023-03-03T16:57:51.422Z,99720.25
2023-03-03T17:00:22.177Z,99607.97
2023-03-03T17:03:10.621Z,99716.78
2023-03-03T17:05:48.640Z,99718.72
2023-03-03T17:08:45.452Z,99717.25
2023-03-03T17:11:24.439Z,99567.75
2023-03-03T17:14:11.331Z,99719.69
2023-03-03T17:16:52.724Z,99702.78
2023-03-03T17:19:31.196Z,99723.56
2023-03-03T17:22:12.390Z,99723.19
2023-03-03T17:24:49.173Z,99736.50
2023-03-03T17:27:27.073Z,99734.16
2023-03-03T17:30:04.445Z,99736.91
2023-03-03T17:32:42.697Z,99739.41
2023-03-03T17:35:19.953Z,99736.41
2023-03-03T17:37:59.369Z,99749.50
2023-03-03T17:40:43.387Z,99757.84
2023-03-03T17:43:15.342Z,99760.97
2023-03-03T17:45:46.263Z,99729.19
2023-03-03T17:48:39.651Z,99764.75
2023-03-03T17:51:19.662Z,99760.28
2023-03-03T17:54:17.636Z,99775.31
2023-03-03T17:56:58.030Z,99768.44
2023-03-03T17:59:43.476Z,99740.31
2023-03-03T18:02:41.528Z,99731.91
2023-03-03T18:05:30.026Z,99753.78
2023-03-03T18:08:08.862Z,99759.38
2023-03-03T18:11:01.448Z,99750.63
2023-03-03T18:14:03.269Z,99754.19
2023-03-03T18:16:46.160Z,99776.63
2023-03-03T18:19:32.065Z,99777.34
2023-03-03T18:22:07.993Z,99776.44
2023-03-03T18:24:39.327Z,99783.88
2023-03-03T18:27:44.102Z,99790.53
2023-03-03T18:30:24.928Z,99793.16
2023-03-03T18:33:14.422Z,99787.75
2023-03-03T18:35:44.112Z,99789.44
2023-03-03T18:38:43.114Z,99783.13
2023-03-03T18:41:12.939Z,99778.00
2023-03-03T18:44:00.866Z,99765.50
2023-03-03T18:46:52.518Z,99798.72
2023-03-03T18:49:52.652Z,99796.50
2023-03-03T18:52:27.120Z,99786.34
2023-03-03T18:55:24.753Z,99799.94
2023-03-03T18:58:29.061Z,99785.69
2023-03-03T19:01:00.967Z,99758.91
2023-03-03T19:03:34.887Z,99732.50
2023-03-03T19:06:03.793Z,99793.88
2023-03-03T19:08:46.597Z,99793.41
2023-03-03T19:11:36.537Z,99796.66
2023-03-03T19:14:19.194Z,99801.19
2023-03-03T19:16:47.419Z,99812.06
2023-03-03T19:19:19.141Z,99789.88
2023-03-03T19:21:51.244Z,99792.63
2023-03-03T19:24:29.407Z,99803.59
2023-03-03T19:27:18.260Z,99804.34
2023-03-03T19:30:12.654Z,99815.34
2023-03-03T19:32:57.507Z,99768.50
2023-03-03T19:35:36.772Z,99805.50
2023-03-03T19:38:21.450Z,99775.06
2023-03-03T19:41:00.308Z,99805.06
2023-03-03T19:43:39.773Z,99817.41
2023-03-03T19:46:27.908Z,99812.28
2023-03-03T19:49:08.078Z,99816.75
2023-03-03T19:51:46.086Z,99822.84
2023-03-03T19:54:22.886Z,99749.63
2023-03-03T19:56:53.949Z,99825.31
2023-03-03T19:59:31.521Z,99821.44
2023-03-03T20:02:15.055Z,99815.84
2023-03-03T20:04:58.663Z,99822.88
2023-03-03T20:07:36.090Z,99821.41
2023-03-03T20:10:24.372Z,99820.28
2023-03-03T20:13:02.605Z,99825.47
2023-03-03T20:15:43.168Z,99829.47
2023-03-03T20:18:43.844Z,99830.25
2023-03-03T20:21:25.132Z,99827.09
2023-03-03T20:24:17.767Z,99827.59
2023-03-03T20:26:59.085Z,99830.47
2023-03-03T20:29:59.260Z,99832.56
2023-03-03T20:32:40.583Z,99824.63
2023-03-03T20:35:21.190Z,99818.53
2023-03-03T20:37:58.811Z,99821.59
2023-03-03T20:40:37.045Z,99799.09
2023-03-03T20:43:15.465Z,99762.72
2023-03-03T20:45:56.626Z,99799.81
2023-03-03T20:48:50.545Z,99804.59
2023-03-03T20:51:28.696Z,99797.66
2023-03-03T20:54:04.218Z,99798.81
2023-03-03T20:56:40.414Z,99784.41
2023-03-03T20:59:19.493Z,99778.03
2023-03-03T21:01:54.825Z,99789.47
2023-03-03T21:04:25.519Z,99786.31
2023-03-03T21:06:53.901Z,99712.34
2023-03-03T21:09:30.615Z,99789.47
2023-03-03T21:12:01.308Z,99793.00
2023-03-03T21:14:31.264Z,99808.22
2023-03-03T21:17:02.762Z,99805.19
2023-03-03T21:19:32.140Z,99821.75
2023-03-03T21:22:02.349Z,99827.75
2023-03-03T21:24:50.358Z,99816.13
2023-03-03T21:27:30.969Z,99811.81
2023-03-03T21:30:13.561Z,99807.94
2023-03-03T21:32:45.150Z,99816.47
2023-03-03T21:35:14.958Z,99805.88
2023-03-03T21:37:48.655Z,99825.81
2023-03-03T21:40:20.984Z,99823.63
2023-03-03T21:42:51.203Z,99813.47
2023-03-03T21:45:20.634Z,99818.22
2023-03-03T21:47:48.930Z,99812.59
2023-03-03T21:50:20.318Z,99808.56
2023-03-03T21:52:48.395Z,99810.63
2023-03-03T21:55:16.463Z,99809.41
2023-03-03T21:57:44.442Z,99793.41
2023-03-03T22:00:14.890Z,99810.06
2023-03-03T22:02:42.870Z,99807.56
2023-03-03T22:05:10.994Z,99814.19
2023-03-03T22:07:39.025Z,99808.03
2023-03-03T22:10:10.049Z,99817.31
2023-03-03T22:12:38.041Z,99815.94
2023-03-03T22:15:06.962Z,99819.00
2023-03-03T22:17:36.321Z,99797.69
2023-03-03T22:20:05.040Z,99805.59
2023-03-03T22:22:32.998Z,99810.75
2023-03-03T22:25:00.897Z,99811.81
2023-03-03T22:27:28.880Z,99809.97
2023-03-03T22:29:56.828Z,99810.97
2023-03-03T22:32:24.756Z,99813.41
2023-03-03T22:34:54.098Z,99819.88
2023-03-03T22:37:21.996Z,99812.47
2023-03-03T22:39:50.003Z,99817.63
2023-03-03T22:42:18.744Z,99814.38
2023-03-03T22:44:46.756Z,99808.50
2023-03-03T22:47:14.656Z,99806.06
2023-03-03T22:49:42.652Z,99816.41
2023-03-03T22:52:11.965Z,99823.09
2023-03-03T22:54:39.965Z,99818.91
2023-03-03T22:57:07.921Z,99823.41
2023-03-03T22:59:35.865Z,99817.63
2023-03-03T23:02:04.022Z,99815.25
2023-03-03T23:04:33.037Z,99813.34
2023-03-03T23:07:01.272Z,99816.66
2023-03-03T23:09:30.605Z,99819.91
2023-03-03T23:11:58.537Z,99822.66
2023-03-03T23:14:26.545Z,99800.88
2023-03-03T23:16:54.509Z,99827.91
2023-03-03T23:19:22.465Z,99830.09
2023-03-03T23:21:50.381Z,99832.69
2023-03-03T23:24:18.350Z,99829.03
2023-03-03T23:26:47.629Z,99824.03
2023-03-03T23:29:15.617Z,99822.25
2023-03-03T23:31:43.563Z,99815.16
2023-03-03T23:34:11.698Z,99812.41
2023-03-03T23:36:39.675Z,99803.88
2023-03-03T23:39:07.564Z,99803.63
2023-03-03T23:41:36.472Z,99782.34
2023-03-03T23:44:05.903Z,99805.25
2023-03-03T23:46:33.879Z,99809.75
2023-03-03T23:49:02.192Z,99813.56
2023-03-03T23:51:30.394Z,99805.56
2023-03-03T23:53:58.324Z,99807.53
2023-03-03T23:56:26.277Z,99806.00
2023-03-03T23:58:54.126Z,99810.16
